Sm Yantian — 3EHD2 — position and weather

sailwx.info

Track history (hours):
 
Tides and Currents Weather Stations Pressure Air Temp Water Temp Dewpoint Dewpoint Depression Visibility Wind Speed Wind Dir Waves Ship Positions

Sm Yantian

Last reported at 2017-Nov-09 16:12 UTC. Time now 2017-Nov-23 03:29 UTC.
Position N 31°17' E 123°25'.
Warning: this ship's position is 13 days out of date.

Length 304 m; draft 11.5 m.

Type: Ship (hazmat cat A). MMSI: 372025000.

Date/timePositionNaut miles runAvg speedWind from/ knotsBaromVisibWave heightAir tempDewpointWater temp
2017-Nov-09 16:12N 31°17' E 123°25'517.5
2017-Nov-09 15:55N 31°15' E 123°20'717.2
2017-Nov-09 15:29N 31°12' E 123°12'711.7
2017-Nov-09 14:54N 31°09' E 123°05'0 0.9
2017-Nov-09 14:30N 31°08' E 123°05'4 7.6
2017-Nov-09 13:57N 31°06' E 123°01'0 0.4
2017-Nov-09 13:30N 31°06' E 123°01'4 5.4
2017-Nov-09 12:48N 31°06' E 122°56'514.9
2017-Nov-09 12:29N 31°06' E 122°51'815.6
2017-Nov-09 11:58N 31°06' E 122°42'816.2
2017-Nov-09 11:31N 31°05' E 122°33'510.9
2017-Nov-09 11:00N 31°06' E 122°26'611.6
2017-Nov-09 10:29N 31°06' E 122°19'714.1
2017-Nov-09 09:59N 31°10' E 122°12'612.6
2017-Nov-09 09:30N 31°13' E 122°07'611.3
2017-Nov-09 09:00N 31°15' E 122°00'714.2
2017-Nov-09 08:30N 31°16' E 121°52'714.1
2017-Nov-09 08:00N 31°19' E 121°44'4 9.0
2017-Nov-09 07:30N 31°21' E 121°40'4 8.8
2017-Nov-09 07:00N 31°23' E 121°35'1 1.2
2017-Nov-09 06:29N 31°23' E 121°34'0 0.0
2017-Nov-09 05:59N 31°23' E 121°34'0 0.1
2017-Nov-09 05:29N 31°23' E 121°34'0 0.1
2017-Nov-09 04:59N 31°23' E 121°34'0 0.0
2017-Nov-09 04:29N 31°23' E 121°34'0 0.0
2017-Nov-09 03:59N 31°23' E 121°34'0 0.0
2017-Nov-09 03:29N 31°23' E 121°34'0 0.0
2017-Nov-09 02:59N 31°23' E 121°34'0 0.0
2017-Nov-09 02:29N 31°23' E 121°34'0 0.0
2017-Nov-09 01:59N 31°23' E 121°34'0 0.0
2017-Nov-09 01:29N 31°23' E 121°34'0 0.0
2017-Nov-09 00:59N 31°23' E 121°34'0 0.0
2017-Nov-09 00:29N 31°23' E 121°34'0 0.0
2017-Nov-08 23:59N 31°23' E 121°34'0 0.0
2017-Nov-08 23:29N 31°23' E 121°34'0 0.0
2017-Nov-08 22:59N 31°23' E 121°34'0 0.0
2017-Nov-08 22:29N 31°23' E 121°34'0 0.0
2017-Nov-08 21:59N 31°23' E 121°34'0 0.1
2017-Nov-08 21:29N 31°23' E 121°34'0 0.1
2017-Nov-08 20:59N 31°23' E 121°34'0 0.0
2017-Nov-08 20:29N 31°23' E 121°34'0 0.0
2017-Nov-08 19:59N 31°23' E 121°34'0 0.0
2017-Nov-08 19:29N 31°23' E 121°34'0 0.0
2017-Nov-08 18:59N 31°23' E 121°34'0 0.0
2017-Nov-08 18:29N 31°23' E 121°34'0 0.0
2017-Nov-08 17:59N 31°23' E 121°34'0 0.0
2017-Nov-08 17:29N 31°23' E 121°34'0 0.0
2017-Nov-08 16:59N 31°23' E 121°34'0 0.0
2017-Nov-08 16:29N 31°23' E 121°34'0 0.0
2017-Nov-08 15:59N 31°23' E 121°34'0 0.0
2017-Nov-08 15:29N 31°23' E 121°34'0 0.0
2017-Nov-08 14:59N 31°23' E 121°34'0 0.1
2017-Nov-08 14:29N 31°23' E 121°34'0 0.0
2017-Nov-08 13:59N 31°23' E 121°34'0 0.0
2017-Nov-08 13:29N 31°23' E 121°34'0 0.0
2017-Nov-08 12:59N 31°23' E 121°34'0 0.0
2017-Nov-08 12:29N 31°23' E 121°34'0 0.0
2017-Nov-08 11:56N 31°23' E 121°34'0 0.0
2017-Nov-08 11:29N 31°23' E 121°34'0 0.0
2017-Nov-08 10:59N 31°23' E 121°34'0 0.0
2017-Nov-08 10:26N 31°23' E 121°34'0 0.0
2017-Nov-08 09:59N 31°23' E 121°34'0 0.0
2017-Nov-08 09:29N 31°23' E 121°34'0 0.0
2017-Nov-08 08:59N 31°23' E 121°34'0 0.0
2017-Nov-08 08:29N 31°23' E 121°34'0 0.0
2017-Nov-08 07:59N 31°23' E 121°34'0 0.0
2017-Nov-08 07:29N 31°23' E 121°34'0 0.1
2017-Nov-08 06:59N 31°23' E 121°34'0 0.1
2017-Nov-08 06:29N 31°23' E 121°34'0 0.2
2017-Nov-08 06:01N 31°23' E 121°34'1 2.4
2017-Nov-08 05:31N 31°23' E 121°36'510.3
2017-Nov-08 05:00N 31°20' E 121°41'510.3
2017-Nov-08 04:31N 31°18' E 121°47'610.3
2017-Nov-08 03:57N 31°16' E 121°53'511.6
2017-Nov-08 03:30N 31°15' E 121°59'611.2
2017-Nov-08 03:00N 31°14' E 122°05'6 9.6
2017-Nov-08 02:20N 31°10' E 122°11'3 9.1
2017-Nov-08 01:58N 31°08' E 122°14'5 9.8
2017-Nov-08 01:30N 31°06' E 122°19'611.2
2017-Nov-08 01:00N 31°07' E 122°26'4 8.0
2017-Nov-08 00:30N 31°07' E 122°30'5 8.9
2017-Nov-07 23:59N 31°07' E 122°36'2 4.6
2017-Nov-07 23:30N 31°08' E 122°38'0 0.1
2017-Nov-07 23:00N 31°08' E 122°38'0 0.1
2017-Nov-07 22:30N 31°08' E 122°38'0 0.0
2017-Nov-07 22:00N 31°08' E 122°38'0 0.0
2017-Nov-07 21:27N 31°08' E 122°38'0 0.1
2017-Nov-07 20:57N 31°08' E 122°38'0 0.0
2017-Nov-07 20:15N 31°08' E 122°38'0 0.0
2017-Nov-07 20:00N 31°08' E 122°38'0 0.1
2017-Nov-07 18:33N 31°08' E 122°38'0 0.0
2017-Nov-07 18:30N 31°08' E 122°38'0 0.1
2017-Nov-07 18:00N 31°08' E 122°38'0 0.3
2017-Nov-07 17:27N 31°08' E 122°38'0 0.1
2017-Nov-07 17:00N 31°08' E 122°38'0 0.0
2017-Nov-07 16:27N 31°08' E 122°38'0 0.1
2017-Nov-07 15:57N 31°08' E 122°38'0 0.1
2017-Nov-07 15:15N 31°08' E 122°38'0 0.1
2017-Nov-07 14:57N 31°08' E 122°38'0 0.2
2017-Nov-07 14:27N 31°08' E 122°38'0 0.2
2017-Nov-07 14:00N 31°08' E 122°38'0 0.1
2017-Nov-07 12:45N 31°08' E 122°38'0 0.1
2017-Nov-07 12:30N 31°08' E 122°38'0 0.1
2017-Nov-07 11:57N 31°08' E 122°38'0 0.0
2017-Nov-07 10:33N 31°08' E 122°38'0 0.0
2017-Nov-07 10:12N 31°08' E 122°38'0 0.0
2017-Nov-07 03:24N 31°08' E 122°38'0 0.0
2017-Nov-07 02:42N 31°08' E 122°38'0 0.1
2017-Nov-06 23:12N 31°08' E 122°38'0 0.0
2017-Nov-06 22:57N 31°08' E 122°38'0 0.1
2017-Nov-06 22:27N 31°08' E 122°38'0 0.1
2017-Nov-06 21:18N 31°08' E 122°38'0 0.2
2017-Nov-06 21:00N 31°08' E 122°38'0 0.1
2017-Nov-06 20:27N 31°08' E 122°38'  
Track history (hours):
 
Tides and Currents Weather Stations Pressure Air Temp Water Temp Dewpoint Dewpoint Depression Visibility Wind Speed Wind Dir Waves Ship Positions

Sm Yantian

Last reported at 2017-Nov-09 16:12 UTC. Time now 2017-Nov-23 03:29 UTC.
Position N 31°17' E 123°25'.
Warning: this ship's position is 13 days out of date.

Length 304 m; draft 11.5 m.

Type: Ship (hazmat cat A). MMSI: 372025000.

Date/timePositionNaut miles runAvg speedWind from/ knotsBaromVisibWave heightAir tempDewpointWater temp
2017-Nov-09 16:12N 31°17' E 123°25'517.5
2017-Nov-09 15:55N 31°15' E 123°20'717.2
2017-Nov-09 15:29N 31°12' E 123°12'711.7
2017-Nov-09 14:54N 31°09' E 123°05'0 0.9
2017-Nov-09 14:30N 31°08' E 123°05'4 7.6
2017-Nov-09 13:57N 31°06' E 123°01'0 0.4
2017-Nov-09 13:30N 31°06' E 123°01'4 5.4
2017-Nov-09 12:48N 31°06' E 122°56'514.9
2017-Nov-09 12:29N 31°06' E 122°51'815.6
2017-Nov-09 11:58N 31°06' E 122°42'816.2
2017-Nov-09 11:31N 31°05' E 122°33'510.9
2017-Nov-09 11:00N 31°06' E 122°26'611.6
2017-Nov-09 10:29N 31°06' E 122°19'714.1
2017-Nov-09 09:59N 31°10' E 122°12'612.6
2017-Nov-09 09:30N 31°13' E 122°07'611.3
2017-Nov-09 09:00N 31°15' E 122°00'714.2
2017-Nov-09 08:30N 31°16' E 121°52'714.1
2017-Nov-09 08:00N 31°19' E 121°44'4 9.0
2017-Nov-09 07:30N 31°21' E 121°40'4 8.8
2017-Nov-09 07:00N 31°23' E 121°35'1 1.2
2017-Nov-09 06:29N 31°23' E 121°34'0 0.0
2017-Nov-09 05:59N 31°23' E 121°34'0 0.1
2017-Nov-09 05:29N 31°23' E 121°34'0 0.1
2017-Nov-09 04:59N 31°23' E 121°34'0 0.0
2017-Nov-09 04:29N 31°23' E 121°34'0 0.0
2017-Nov-09 03:59N 31°23' E 121°34'0 0.0
2017-Nov-09 03:29N 31°23' E 121°34'0 0.0
2017-Nov-09 02:59N 31°23' E 121°34'0 0.0
2017-Nov-09 02:29N 31°23' E 121°34'0 0.0
2017-Nov-09 01:59N 31°23' E 121°34'0 0.0
2017-Nov-09 01:29N 31°23' E 121°34'0 0.0
2017-Nov-09 00:59N 31°23' E 121°34'0 0.0
2017-Nov-09 00:29N 31°23' E 121°34'0 0.0
2017-Nov-08 23:59N 31°23' E 121°34'0 0.0
2017-Nov-08 23:29N 31°23' E 121°34'0 0.0
2017-Nov-08 22:59N 31°23' E 121°34'0 0.0
2017-Nov-08 22:29N 31°23' E 121°34'0 0.0
2017-Nov-08 21:59N 31°23' E 121°34'0 0.1
2017-Nov-08 21:29N 31°23' E 121°34'0 0.1
2017-Nov-08 20:59N 31°23' E 121°34'0 0.0
2017-Nov-08 20:29N 31°23' E 121°34'0 0.0
2017-Nov-08 19:59N 31°23' E 121°34'0 0.0
2017-Nov-08 19:29N 31°23' E 121°34'0 0.0
2017-Nov-08 18:59N 31°23' E 121°34'0 0.0
2017-Nov-08 18:29N 31°23' E 121°34'0 0.0
2017-Nov-08 17:59N 31°23' E 121°34'0 0.0
2017-Nov-08 17:29N 31°23' E 121°34'0 0.0
2017-Nov-08 16:59N 31°23' E 121°34'0 0.0
2017-Nov-08 16:29N 31°23' E 121°34'0 0.0
2017-Nov-08 15:59N 31°23' E 121°34'0 0.0
2017-Nov-08 15:29N 31°23' E 121°34'0 0.0
2017-Nov-08 14:59N 31°23' E 121°34'0 0.1
2017-Nov-08 14:29N 31°23' E 121°34'0 0.0
2017-Nov-08 13:59N 31°23' E 121°34'0 0.0
2017-Nov-08 13:29N 31°23' E 121°34'0 0.0
2017-Nov-08 12:59N 31°23' E 121°34'0 0.0
2017-Nov-08 12:29N 31°23' E 121°34'0 0.0
2017-Nov-08 11:56N 31°23' E 121°34'0 0.0
2017-Nov-08 11:29N 31°23' E 121°34'0 0.0
2017-Nov-08 10:59N 31°23' E 121°34'0 0.0
2017-Nov-08 10:26N 31°23' E 121°34'0 0.0
2017-Nov-08 09:59N 31°23' E 121°34'0 0.0
2017-Nov-08 09:29N 31°23' E 121°34'0 0.0
2017-Nov-08 08:59N 31°23' E 121°34'0 0.0
2017-Nov-08 08:29N 31°23' E 121°34'0 0.0
2017-Nov-08 07:59N 31°23' E 121°34'0 0.0
2017-Nov-08 07:29N 31°23' E 121°34'0 0.1
2017-Nov-08 06:59N 31°23' E 121°34'0 0.1
2017-Nov-08 06:29N 31°23' E 121°34'0 0.2
2017-Nov-08 06:01N 31°23' E 121°34'1 2.4
2017-Nov-08 05:31N 31°23' E 121°36'510.3
2017-Nov-08 05:00N 31°20' E 121°41'510.3
2017-Nov-08 04:31N 31°18' E 121°47'610.3
2017-Nov-08 03:57N 31°16' E 121°53'511.6
2017-Nov-08 03:30N 31°15' E 121°59'611.2
2017-Nov-08 03:00N 31°14' E 122°05'6 9.6
2017-Nov-08 02:20N 31°10' E 122°11'3 9.1
2017-Nov-08 01:58N 31°08' E 122°14'5 9.8
2017-Nov-08 01:30N 31°06' E 122°19'611.2
2017-Nov-08 01:00N 31°07' E 122°26'4 8.0
2017-Nov-08 00:30N 31°07' E 122°30'5 8.9
2017-Nov-07 23:59N 31°07' E 122°36'2 4.6
2017-Nov-07 23:30N 31°08' E 122°38'0 0.1
2017-Nov-07 23:00N 31°08' E 122°38'0 0.1
2017-Nov-07 22:30N 31°08' E 122°38'0 0.0
2017-Nov-07 22:00N 31°08' E 122°38'0 0.0
2017-Nov-07 21:27N 31°08' E 122°38'0 0.1
2017-Nov-07 20:57N 31°08' E 122°38'0 0.0
2017-Nov-07 20:15N 31°08' E 122°38'0 0.0
2017-Nov-07 20:00N 31°08' E 122°38'0 0.1
2017-Nov-07 18:33N 31°08' E 122°38'0 0.0
2017-Nov-07 18:30N 31°08' E 122°38'0 0.1
2017-Nov-07 18:00N 31°08' E 122°38'0 0.3
2017-Nov-07 17:27N 31°08' E 122°38'0 0.1
2017-Nov-07 17:00N 31°08' E 122°38'0 0.0
2017-Nov-07 16:27N 31°08' E 122°38'0 0.1
2017-Nov-07 15:57N 31°08' E 122°38'0 0.1
2017-Nov-07 15:15N 31°08' E 122°38'0 0.1
2017-Nov-07 14:57N 31°08' E 122°38'0 0.2
2017-Nov-07 14:27N 31°08' E 122°38'0 0.2
2017-Nov-07 14:00N 31°08' E 122°38'0 0.1
2017-Nov-07 12:45N 31°08' E 122°38'0 0.1
2017-Nov-07 12:30N 31°08' E 122°38'0 0.1
2017-Nov-07 11:57N 31°08' E 122°38'0 0.0
2017-Nov-07 10:33N 31°08' E 122°38'0 0.0
2017-Nov-07 10:12N 31°08' E 122°38'0 0.0
2017-Nov-07 03:24N 31°08' E 122°38'0 0.0
2017-Nov-07 02:42N 31°08' E 122°38'0 0.1
2017-Nov-06 23:12N 31°08' E 122°38'0 0.0
2017-Nov-06 22:57N 31°08' E 122°38'0 0.1
2017-Nov-06 22:27N 31°08' E 122°38'0 0.1
2017-Nov-06 21:18N 31°08' E 122°38'0 0.2
2017-Nov-06 21:00N 31°08' E 122°38'0 0.1
2017-Nov-06 20:27N 31°08' E 122°38'  

Dump ship's entire track history